Time;durP1;ratioP1;P1;durP2;ratioP2;P2;SDS_P1;SDS_P2;PMS_P1;PMS_P2;Temp;Humidity;BMP_temperature;BMP_pressure;BME280_temperature;BME280_humidity;BME280_pressure;Samples;Min_cycle;Max_cycle;Signal;HPM_P1;HPM_P2
2021/11/18 00:00:42;;;;;;;7.57;2.78;;;7.60;99.90;;;;;;4861030;29;20021;-82
2021/11/18 00:03:10;;;;;;;13.68;2.92;;;7.60;99.90;;;;;;4847923;29;20041;-82
2021/11/18 00:05:37;;;;;;;4.65;2.80;;;7.70;99.90;;;;;;4865272;29;20506;-82
2021/11/18 00:08:04;;;;;;;10.40;3.20;;;7.60;99.90;;;;;;4862982;29;20029;-81
2021/11/18 00:10:34;;;;;;;12.05;2.63;;;7.60;99.90;;;;;;4850878;29;20720;-81
2021/11/18 00:13:02;;;;;;;12.77;2.63;;;7.60;99.90;;;;;;4849783;29;20041;-78
2021/11/18 00:15:30;;;;;;;12.05;2.80;;;7.60;99.90;;;;;;4846531;29;20039;-79
2021/11/18 00:18:01;;;;;;;11.27;2.95;;;7.70;99.90;;;;;;4847362;29;20030;-81
2021/11/18 00:20:33;;;;;;;18.33;3.15;;;7.80;99.90;;;;;;4847597;29;20033;-82
2021/11/18 00:22:59;;;;;;;8.15;2.95;;;7.70;99.90;;;;;;4863111;29;20025;-81
2021/11/18 00:25:26;;;;;;;17.40;3.30;;;7.70;99.90;;;;;;4847694;29;20482;-81
2021/11/18 00:27:52;;;;;;;9.32;2.45;;;7.70;99.90;;;;;;4862110;29;20021;-81
2021/11/18 00:30:18;;;;;;;10.57;3.20;;;7.80;99.90;;;;;;4863681;29;20034;-80
2021/11/18 00:32:45;;;;;;;15.85;3.30;;;7.70;99.90;;;;;;4862925;29;20022;-81
2021/11/18 00:35:15;;;;;;;13.27;4.68;;;7.70;99.90;;;;;;4863181;29;20487;-81
2021/11/18 00:37:41;;;;;;;8.27;3.00;;;7.70;99.90;;;;;;4846647;29;20056;-81
2021/11/18 00:40:08;;;;;;;9.40;2.80;;;7.60;99.90;;;;;;4847147;29;20125;-81
2021/11/18 00:42:34;;;;;;;18.35;4.15;;;7.60;99.90;;;;;;4862843;29;20033;-81
2021/11/18 00:45:00;;;;;;;6.07;2.75;;;7.60;99.90;;;;;;4863763;29;20169;-81
2021/11/18 00:47:26;;;;;;;9.77;3.08;;;7.70;99.90;;;;;;4863730;29;20514;-83
2021/11/18 00:49:52;;;;;;;11.25;2.92;;;7.70;99.90;;;;;;4847245;29;20053;-81
2021/11/18 00:52:19;;;;;;;12.63;2.80;;;7.70;99.90;;;;;;4847867;29;20116;-82
2021/11/18 00:54:44;;;;;;;13.27;2.67;;;7.70;99.90;;;;;;4862118;29;20072;-81
2021/11/18 00:57:10;;;;;;;13.75;3.30;;;7.70;99.90;;;;;;4847115;29;20065;-81
2021/11/18 00:59:36;;;;;;;13.02;3.00;;;7.70;99.90;;;;;;4863384;29;20025;-81
2021/11/18 01:02:02;;;;;;;14.63;2.65;;;7.80;99.90;;;;;;4845817;29;20112;-82
2021/11/18 01:04:29;;;;;;;13.50;3.45;;;7.80;99.90;;;;;;4846193;29;20040;-81
2021/11/18 01:06:56;;;;;;;4.20;1.80;;;7.80;99.90;;;;;;4863109;29;20056;-81
2021/11/18 01:09:23;;;;;;;14.00;3.72;;;7.80;99.90;;;;;;4849531;29;20049;-81
2021/11/18 01:11:48;;;;;;;13.73;3.45;;;7.80;99.90;;;;;;4845430;29;20128;-82
2021/11/18 01:14:16;;;;;;;15.27;4.00;;;7.80;99.90;;;;;;4862178;29;20063;-82
2021/11/18 01:16:45;;;;;;;15.55;3.30;;;7.80;99.90;;;;;;4863901;29;20038;-82
2021/11/18 01:19:11;;;;;;;30.05;3.67;;;7.80;99.90;;;;;;4846557;29;20026;-82
2021/11/18 01:21:38;;;;;;;13.40;3.60;;;7.80;99.90;;;;;;4846261;29;20542;-83
2021/11/18 01:24:05;;;;;;;11.07;3.33;;;7.80;99.90;;;;;;4846155;29;20529;-81
2021/11/18 01:26:31;;;;;;;12.98;2.83;;;7.90;99.90;;;;;;4862961;29;20061;-82
2021/11/18 01:29:00;;;;;;;16.95;3.22;;;7.90;99.90;;;;;;4862979;29;20030;-82
2021/11/18 01:31:26;;;;;;;9.48;2.60;;;7.90;99.90;;;;;;4846283;29;20375;-81
2021/11/18 01:33:52;;;;;;;8.50;2.28;;;7.90;99.90;;;;;;4862910;29;20033;-80
2021/11/18 01:36:18;;;;;;;19.15;3.75;;;7.90;99.90;;;;;;4846670;29;20120;-82
2021/11/18 01:38:45;;;;;;;14.52;2.63;;;7.90;99.90;;;;;;4861881;29;20025;-82
2021/11/18 01:41:17;;;;;;;15.35;3.85;;;8.00;99.90;;;;;;4862433;29;20486;-81
2021/11/18 01:43:47;;;;;;;18.38;3.78;;;8.00;99.90;;;;;;4862685;29;20454;-81
2021/11/18 01:46:17;;;;;;;11.43;3.40;;;8.00;99.90;;;;;;4845600;29;20041;-81
2021/11/18 01:48:46;;;;;;;11.88;3.83;;;7.90;99.90;;;;;;4862232;29;20037;-82
2021/11/18 01:51:11;;;;;;;12.32;3.63;;;7.90;99.90;;;;;;4846127;29;20379;-81
2021/11/18 01:53:41;;;;;;;13.85;3.33;;;8.00;99.90;;;;;;4861913;29;20050;-81
2021/11/18 01:56:11;;;;;;;15.82;3.47;;;8.00;99.90;;;;;;4845533;29;20044;-82
2021/11/18 01:58:38;;;;;;;13.70;3.67;;;8.00;99.90;;;;;;4845724;29;20045;-81
2021/11/18 02:01:06;;;;;;;13.75;4.50;;;8.00;99.90;;;;;;4845419;29;20018;-83
2021/11/18 02:03:32;;;;;;;12.38;3.22;;;8.10;99.90;;;;;;4845507;29;20413;-82
2021/11/18 02:06:04;;;;;;;4.93;2.55;;;8.10;99.90;;;;;;4845780;29;20053;-82
2021/11/18 02:08:30;;;;;;;14.80;3.97;;;8.10;99.90;;;;;;4862205;29;20044;-82
2021/11/18 02:11:03;;;;;;;9.70;3.20;;;8.10;99.90;;;;;;4862329;29;20406;-82
2021/11/18 02:13:31;;;;;;;18.73;4.20;;;8.10;99.90;;;;;;4845346;29;20046;-82
2021/11/18 02:15:59;;;;;;;9.35;3.85;;;8.20;99.90;;;;;;4845445;29;20030;-82
2021/11/18 02:18:31;;;;;;;15.18;3.97;;;8.20;99.90;;;;;;4861875;29;20025;-82
2021/11/18 02:21:03;;;;;;;21.38;4.00;;;8.20;99.90;;;;;;4857915;29;20022;-82
2021/11/18 02:23:32;;;;;;;13.18;3.53;;;8.20;99.90;;;;;;4845202;29;20029;-82
2021/11/18 02:25:59;;;;;;;12.90;2.90;;;8.20;99.90;;;;;;4861810;29;20040;-81
2021/11/18 02:28:28;;;;;;;11.88;3.78;;;8.30;99.90;;;;;;4845226;29;20134;-82
2021/11/18 02:30:56;;;;;;;10.85;3.25;;;8.30;99.90;;;;;;4861562;29;20041;-80
2021/11/18 02:33:23;;;;;;;8.27;3.40;;;8.30;99.90;;;;;;4844939;29;20045;-81
2021/11/18 02:35:49;;;;;;;14.80;3.13;;;8.30;99.90;;;;;;4859338;29;20049;-81
2021/11/18 02:38:17;;;;;;;12.43;3.10;;;8.30;99.90;;;;;;4844495;29;20109;-83
2021/11/18 02:40:43;;;;;;;8.90;3.22;;;8.30;99.90;;;;;;4861301;29;20033;-80
2021/11/18 02:43:16;;;;;;;11.05;2.90;;;8.40;99.90;;;;;;4861398;29;20101;-80
2021/11/18 02:45:47;;;;;;;22.65;3.33;;;8.40;99.90;;;;;;4861669;29;20039;-82
2021/11/18 02:48:15;;;;;;;15.82;3.58;;;8.40;99.90;;;;;;4844581;29;20495;-81
2021/11/18 02:50:45;;;;;;;14.63;3.30;;;8.50;99.90;;;;;;4842260;29;20036;-82
2021/11/18 02:53:12;;;;;;;16.05;3.40;;;8.40;99.90;;;;;;4860994;29;20030;-81
2021/11/18 02:55:41;;;;;;;15.50;3.80;;;8.50;99.90;;;;;;4844492;29;20040;-81
2021/11/18 02:58:07;;;;;;;8.23;2.92;;;8.40;99.90;;;;;;4861893;29;20049;-81
2021/11/18 03:00:45;;;;;;;12.02;2.67;;;8.50;99.90;;;;;;4844529;29;20051;-81
2021/11/18 03:03:11;;;;;;;;;;;8.50;99.90;;;;;;4861923;29;20029;-81
2021/11/18 03:05:37;;;;;;;13.80;3.28;;;8.60;99.90;;;;;;4844742;29;20333;-81
2021/11/18 03:08:03;;;;;;;18.60;3.58;;;8.60;99.90;;;;;;4844623;29;20033;-81
2021/11/18 03:10:29;;;;;;;9.90;2.83;;;8.60;99.90;;;;;;4861176;29;20108;-82
2021/11/18 03:12:55;;;;;;;14.45;2.88;;;8.60;99.90;;;;;;4844887;29;20029;-82
2021/11/18 03:15:23;;;;;;;19.00;3.72;;;8.60;99.90;;;;;;4870093;29;20037;-81
2021/11/18 03:17:49;;;;;;;9.25;2.95;;;8.60;99.90;;;;;;4876789;29;20022;-81
2021/11/18 03:20:17;;;;;;;17.08;3.70;;;8.70;99.90;;;;;;4862154;29;20120;-81
2021/11/18 03:22:44;;;;;;;12.93;3.03;;;8.70;99.90;;;;;;4845605;29;20566;-81
2021/11/18 03:25:13;;;;;;;21.58;3.15;;;8.70;99.90;;;;;;4844158;29;20553;-81
2021/11/18 03:27:39;;;;;;;18.13;3.50;;;8.80;99.90;;;;;;4860575;29;20097;-81
2021/11/18 03:30:08;;;;;;;18.67;2.75;;;8.80;99.90;;;;;;4845323;29;20491;-80
2021/11/18 03:32:34;;;;;;;17.05;3.25;;;8.80;99.90;;;;;;4843532;29;20040;-80
2021/11/18 03:35:00;;;;;;;16.65;4.20;;;8.80;99.90;;;;;;4845399;29;20568;-80
2021/11/18 03:37:25;;;;;;;12.18;3.70;;;8.80;99.90;;;;;;4850920;29;20482;-83
2021/11/18 03:39:51;;;;;;;17.23;3.13;;;8.80;99.90;;;;;;4859489;29;20065;-81
2021/11/18 03:42:18;;;;;;;14.20;2.88;;;8.90;99.90;;;;;;4872082;29;20077;-81
2021/11/18 03:44:44;;;;;;;13.93;3.45;;;8.90;99.90;;;;;;4888813;29;20033;-80
2021/11/18 03:47:12;;;;;;;20.88;4.68;;;8.90;99.90;;;;;;4888373;29;20041;-81
2021/11/18 03:49:39;;;;;;;11.23;3.83;;;8.90;99.90;;;;;;4888199;29;20013;-81
2021/11/18 03:52:08;;;;;;;16.30;3.22;;;8.90;99.90;;;;;;4888825;29;20375;-82
2021/11/18 03:54:35;;;;;;;21.15;3.17;;;8.90;99.90;;;;;;4870409;29;20021;-81
2021/11/18 03:57:01;;;;;;;11.02;3.78;;;8.90;99.90;;;;;;4869702;29;20042;-81
2021/11/18 03:59:30;;;;;;;18.17;3.30;;;8.90;99.90;;;;;;4869351;29;20033;-80
2021/11/18 04:01:57;;;;;;;18.38;3.70;;;8.90;99.90;;;;;;4869437;29;20018;-81
2021/11/18 04:04:31;;;;;;;20.47;3.10;;;8.90;99.90;;;;;;4870423;29;20039;-82
2021/11/18 04:06:56;;;;;;;15.55;4.60;;;8.90;99.90;;;;;;4864052;29;20034;-83
2021/11/18 04:09:22;;;;;;;24.33;3.47;;;8.90;99.90;;;;;;4864350;29;20041;-82
2021/11/18 04:11:52;;;;;;;17.70;2.97;;;8.90;99.90;;;;;;4863962;29;20066;-82
2021/11/18 04:14:18;;;;;;;14.32;3.70;;;8.90;99.90;;;;;;4868421;29;20109;-82
2021/11/18 04:16:44;;;;;;;10.93;3.55;;;8.90;99.90;;;;;;4870127;29;20030;-81
2021/11/18 04:19:11;;;;;;;17.75;3.60;;;8.90;99.90;;;;;;4870324;29;20033;-82
2021/11/18 04:21:41;;;;;;;15.80;3.05;;;8.90;99.90;;;;;;4882038;29;20014;-82
2021/11/18 04:24:09;;;;;;;15.93;3.58;;;8.80;99.90;;;;;;4879572;29;20026;-81
2021/11/18 04:26:35;;;;;;;22.33;3.63;;;8.80;99.90;;;;;;4869447;29;20046;-80
2021/11/18 04:29:02;;;;;;;20.52;4.30;;;8.80;99.90;;;;;;4869050;29;20038;-81
2021/11/18 04:31:30;;;;;;;16.40;3.20;;;8.80;99.90;;;;;;4869179;29;20111;-83
2021/11/18 04:33:57;;;;;;;20.02;4.95;;;8.80;99.90;;;;;;4868360;29;20014;-82
2021/11/18 04:36:24;;;;;;;11.57;3.42;;;8.70;99.90;;;;;;4868425;29;20049;-81
2021/11/18 04:38:52;;;;;;;17.90;3.53;;;8.70;99.90;;;;;;4867124;29;20026;-80
2021/11/18 04:41:20;;;;;;;13.55;4.15;;;8.70;99.90;;;;;;4857577;29;20415;-81
2021/11/18 04:43:46;;;;;;;12.68;3.40;;;8.70;99.90;;;;;;4851217;29;20026;-81
2021/11/18 04:46:13;;;;;;;20.42;4.32;;;8.60;99.90;;;;;;4850463;29;20022;-82
2021/11/18 04:48:40;;;;;;;17.85;4.60;;;8.60;99.90;;;;;;4845785;29;20036;-81
2021/11/18 04:51:08;;;;;;;21.33;4.10;;;8.60;99.90;;;;;;4843255;29;20049;-81
2021/11/18 04:53:35;;;;;;;;;;;8.60;99.90;;;;;;4845822;29;20014;-81
2021/11/18 04:56:01;;;;;;;18.52;4.10;;;8.60;99.90;;;;;;4845422;29;19916;-81
2021/11/18 04:58:27;;;;;;;12.38;4.15;;;8.60;99.90;;;;;;4843986;29;20149;-82
2021/11/18 05:00:55;;;;;;;16.52;4.82;;;8.60;99.90;;;;;;4845639;29;20057;-81
2021/11/18 05:03:22;;;;;;;19.60;4.57;;;8.60;99.90;;;;;;4843529;29;20013;-81
2021/11/18 05:05:49;;;;;;;12.90;3.80;;;8.60;99.90;;;;;;4845532;29;20090;-81
2021/11/18 05:08:15;;;;;;;20.70;3.60;;;8.70;99.90;;;;;;4845341;29;20037;-82
2021/11/18 05:10:43;;;;;;;22.27;4.35;;;8.70;99.90;;;;;;4844870;29;20034;-81
2021/11/18 05:13:09;;;;;;;8.68;3.25;;;8.70;99.90;;;;;;4843740;29;20030;-81
2021/11/18 05:15:39;;;;;;;18.40;3.90;;;8.80;99.90;;;;;;4843305;29;20026;-80
2021/11/18 05:18:06;;;;;;;16.00;3.85;;;8.80;99.90;;;;;;4843999;29;20399;-81
2021/11/18 05:20:33;;;;;;;12.68;3.33;;;8.80;99.90;;;;;;4843291;29;20044;-80
2021/11/18 05:22:59;;;;;;;20.25;4.13;;;8.80;99.90;;;;;;4844169;29;20098;-80
2021/11/18 05:25:27;;;;;;;21.48;4.43;;;8.80;99.90;;;;;;4845422;29;20558;-81
2021/11/18 05:27:53;;;;;;;19.25;4.15;;;8.80;99.90;;;;;;4842947;29;20069;-80
2021/11/18 05:30:23;;;;;;;24.00;4.45;;;8.90;99.90;;;;;;4844770;29;20050;-81
2021/11/18 05:32:49;;;;;;;13.90;3.75;;;8.90;99.90;;;;;;4842751;29;20034;-81
2021/11/18 05:35:14;;;;;;;20.23;3.55;;;8.90;99.90;;;;;;4844697;29;20670;-80
2021/11/18 05:37:40;;;;;;;24.13;4.00;;;9.00;99.90;;;;;;4844525;29;20037;-81
2021/11/18 05:40:08;;;;;;;12.57;4.00;;;9.00;99.90;;;;;;4843729;29;20034;-81
2021/11/18 05:42:35;;;;;;;18.23;3.90;;;9.00;99.90;;;;;;4840515;29;20034;-81
2021/11/18 05:45:01;;;;;;;14.70;3.22;;;9.00;99.90;;;;;;4843906;29;20030;-81
2021/11/18 05:47:28;;;;;;;19.50;4.57;;;9.00;99.90;;;;;;4844630;29;20037;-80
2021/11/18 05:49:54;;;;;;;21.95;4.40;;;9.00;99.90;;;;;;4844691;29;20075;-80
2021/11/18 05:52:21;;;;;;;17.30;3.40;;;9.00;99.90;;;;;;4843887;29;20499;-81
2021/11/18 05:54:46;;;;;;;22.23;4.18;;;9.00;99.90;;;;;;4843555;29;20025;-82
2021/11/18 05:57:12;;;;;;;17.58;4.28;;;9.10;99.90;;;;;;4842766;29;20048;-81
2021/11/18 05:59:38;;;;;;;20.55;3.65;;;9.10;99.90;;;;;;4843338;29;20029;-82
2021/11/18 06:02:06;;;;;;;11.52;3.33;;;9.10;99.90;;;;;;4844466;29;20034;-82
2021/11/18 06:04:32;;;;;;;12.25;3.63;;;9.10;99.90;;;;;;4837885;29;20030;-80
2021/11/18 06:06:57;;;;;;;11.82;3.10;;;9.10;99.90;;;;;;4844043;29;20046;-82
2021/11/18 06:09:23;;;;;;;15.75;4.05;;;9.10;99.90;;;;;;4842647;29;20102;-81
2021/11/18 06:11:49;;;;;;;14.98;3.70;;;9.00;99.90;;;;;;4843265;29;20049;-81
2021/11/18 06:14:15;;;;;;;10.35;3.47;;;9.00;99.90;;;;;;4842461;29;20034;-81
2021/11/18 06:16:41;;;;;;;14.13;3.63;;;9.00;99.90;;;;;;4843880;29;20121;-82
2021/11/18 06:19:07;;;;;;;16.73;5.13;;;9.00;99.90;;;;;;4842594;29;20065;-83
2021/11/18 06:21:37;;;;;;;20.42;4.30;;;9.00;99.90;;;;;;4844548;29;20022;-83
2021/11/18 06:24:04;;;;;;;11.60;3.70;;;8.90;99.90;;;;;;4842747;29;20129;-82
2021/11/18 06:26:30;;;;;;;16.45;3.70;;;8.90;99.90;;;;;;4843720;29;20451;-82
2021/11/18 06:28:57;;;;;;;21.10;4.95;;;8.90;99.90;;;;;;4842256;29;20085;-82
2021/11/18 06:31:23;;;;;;;28.95;5.35;;;8.90;99.90;;;;;;4843598;29;20040;-80
2021/11/18 06:33:50;;;;;;;21.27;4.85;;;8.80;99.90;;;;;;4842139;29;20073;-82
2021/11/18 06:36:17;;;;;;;15.65;4.57;;;8.80;99.90;;;;;;4842030;29;20082;-82
2021/11/18 06:38:45;;;;;;;18.48;3.50;;;8.80;99.90;;;;;;4842406;29;20589;-81
2021/11/18 06:41:11;;;;;;;;;;;8.80;99.90;;;;;;4842574;29;20037;-82
2021/11/18 06:43:38;;;;;;;15.25;3.53;;;8.80;99.90;;;;;;4843099;29;19969;-83
2021/11/18 06:46:04;;;;;;;24.00;4.15;;;8.70;99.90;;;;;;4842799;29;20061;-81
2021/11/18 06:48:30;;;;;;;14.98;4.75;;;8.70;99.90;;;;;;4842015;29;20054;-83
2021/11/18 06:51:02;;;;;;;19.92;4.00;;;8.70;99.90;;;;;;4843354;29;20026;-82
2021/11/18 06:53:29;;;;;;;13.70;3.65;;;8.70;99.90;;;;;;4843170;29;20026;-80
2021/11/18 06:55:54;;;;;;;23.23;4.57;;;8.70;99.90;;;;;;4843052;29;20357;-82
2021/11/18 06:58:20;;;;;;;27.63;4.88;;;8.70;99.90;;;;;;4856076;29;20075;-81
2021/11/18 07:00:46;;;;;;;25.05;3.50;;;8.70;99.90;;;;;;4844129;29;20026;-81
2021/11/18 07:03:12;;;;;;;18.58;4.32;;;8.70;99.90;;;;;;4856474;29;20029;-81
2021/11/18 07:05:40;;;;;;;17.92;4.15;;;8.80;99.90;;;;;;4844171;29;20025;-81
2021/11/18 07:08:07;;;;;;;30.45;4.93;;;8.80;99.90;;;;;;4845025;29;20033;-81
2021/11/18 07:10:33;;;;;;;21.55;4.18;;;8.80;99.90;;;;;;4844150;29;20041;-81
2021/11/18 07:12:59;;;;;;;32.13;5.07;;;8.80;99.90;;;;;;4858219;29;20089;-81
2021/11/18 07:15:26;;;;;;;22.20;5.28;;;8.80;99.90;;;;;;4845021;29;20491;-79
2021/11/18 07:17:54;;;;;;;24.10;4.35;;;8.80;99.90;;;;;;4842467;29;20519;-83
2021/11/18 07:20:20;;;;;;;20.10;4.75;;;8.90;99.90;;;;;;4861578;29;20038;-81
2021/11/18 07:22:47;;;;;;;16.67;5.07;;;8.90;99.90;;;;;;4861437;29;20030;-82
2021/11/18 07:25:17;;;;;;;27.42;4.43;;;8.90;99.90;;;;;;4860825;29;20065;-82
2021/11/18 07:27:43;;;;;;;11.82;4.53;;;9.00;99.90;;;;;;4861355;29;20030;-82
2021/11/18 07:30:10;;;;;;;12.48;3.90;;;9.00;99.90;;;;;;4844813;29;20033;-82
2021/11/18 07:32:35;;;;;;;17.65;4.65;;;9.00;99.90;;;;;;4844433;29;20554;-81
2021/11/18 07:35:02;;;;;;;11.75;3.65;;;9.00;99.90;;;;;;4844075;29;20137;-82
2021/11/18 07:37:28;;;;;;;17.92;5.35;;;9.00;99.90;;;;;;4861848;29;20502;-80
2021/11/18 07:39:54;;;;;;;27.45;5.13;;;9.00;99.90;;;;;;4861941;29;20029;-81
2021/11/18 07:42:19;;;;;;;13.63;4.80;;;9.00;99.90;;;;;;4861918;29;20033;-82
2021/11/18 07:44:45;;;;;;;20.73;5.50;;;9.00;99.90;;;;;;4860419;29;20021;-81
2021/11/18 07:47:10;;;;;;;12.88;3.97;;;9.00;99.90;;;;;;4852709;29;20093;-82
2021/11/18 07:49:36;;;;;;;10.65;4.50;;;9.00;99.90;;;;;;4861187;29;20037;-82
2021/11/18 07:52:02;;;;;;;15.57;4.05;;;9.00;99.90;;;;;;4862708;29;20086;-82
2021/11/18 07:54:28;;;;;;;13.07;4.45;;;9.00;99.90;;;;;;4863494;29;20093;-82
2021/11/18 07:57:12;;;;;;;16.13;4.70;;;9.00;99.90;;;;;;4862700;29;20513;-82
2021/11/18 07:59:38;;;;;;;16.90;3.67;;;9.00;99.90;;;;;;4863939;29;20030;-83
2021/11/18 08:02:05;;;;;;;15.98;3.85;;;9.00;99.90;;;;;;4863924;29;20501;-83
2021/11/18 08:04:31;;;;;;;18.05;4.30;;;9.00;99.90;;;;;;4861327;29;20033;-83
2021/11/18 08:06:59;;;;;;;16.30;4.80;;;9.00;99.90;;;;;;4879232;29;20037;-84
2021/11/18 08:09:25;;;;;;;22.45;5.28;;;9.10;99.90;;;;;;4877178;29;20021;-83
2021/11/18 08:11:56;;;;;;;15.85;4.40;;;9.10;99.90;;;;;;4870762;29;20025;-82
2021/11/18 08:14:23;;;;;;;14.85;4.63;;;9.00;99.90;;;;;;4883838;29;20022;-81
2021/11/18 08:19:34;;;;;;;18.90;4.40;;;9.00;99.90;;;;;;4879867;29;20032;-84
2021/11/18 08:22:18;;;;;;;12.90;4.80;;;9.00;99.90;;;;;;4866111;29;20041;-83
2021/11/18 08:24:44;;;;;;;17.75;5.47;;;9.10;99.90;;;;;;4874366;29;20065;-83
2021/11/18 08:27:10;;;;;;;17.17;4.65;;;9.10;99.90;;;;;;4867541;29;20033;-82
2021/11/18 08:29:36;;;;;;;13.63;3.60;;;9.10;99.90;;;;;;4852602;29;20554;-83
2021/11/18 08:32:03;;;;;;;29.50;6.57;;;9.20;99.90;;;;;;4851626;29;20052;-82
2021/11/18 08:34:29;;;;;;;15.48;4.07;;;9.20;99.90;;;;;;4868184;29;20053;-83
2021/11/18 08:36:58;;;;;;;12.23;4.03;;;9.30;99.90;;;;;;4863781;29;20048;-82
2021/11/18 08:39:25;;;;;;;21.75;4.45;;;9.30;99.90;;;;;;4864732;29;20025;-83
2021/11/18 08:41:54;;;;;;;17.30;4.75;;;9.30;99.90;;;;;;4858228;29;20423;-83
2021/11/18 08:44:21;;;;;;;20.70;5.35;;;9.40;99.90;;;;;;4848904;29;20410;-79
2021/11/18 08:46:48;;;;;;;20.23;4.57;;;9.40;99.90;;;;;;4865210;29;20054;-82
2021/11/18 08:49:15;;;;;;;17.45;5.00;;;9.40;99.90;;;;;;4865016;29;20385;-81
2021/11/18 08:51:42;;;;;;;24.95;4.85;;;9.40;99.90;;;;;;4864169;29;20029;-81
2021/11/18 08:54:11;;;;;;;22.48;4.82;;;9.50;99.90;;;;;;4842748;29;20053;-79
2021/11/18 08:56:37;;;;;;;21.45;5.45;;;9.60;99.90;;;;;;4862197;29;20045;-80
2021/11/18 08:59:07;;;;;;;23.40;4.90;;;9.60;99.90;;;;;;4866055;29;20047;-79
2021/11/18 09:01:39;;;;;;;18.17;4.85;;;9.70;99.90;;;;;;4867257;29;20104;-80
2021/11/18 09:04:08;;;;;;;27.23;5.82;;;9.70;99.90;;;;;;4851950;29;20040;-84
2021/11/18 09:06:35;;;;;;;21.42;4.68;;;9.70;99.90;;;;;;4849586;29;20045;-82
2021/11/18 09:09:01;;;;;;;36.58;5.43;;;9.80;99.90;;;;;;4829268;29;20038;-81
2021/11/18 09:11:29;;;;;;;21.52;4.80;;;9.90;99.90;;;;;;4860639;29;20088;-85
2021/11/18 09:13:55;;;;;;;14.05;4.32;;;10.00;99.90;;;;;;4870117;29;20037;-84
2021/11/18 09:16:23;;;;;;;21.13;4.93;;;10.00;99.90;;;;;;4851852;29;20037;-83
2021/11/18 09:18:49;;;;;;;26.42;4.47;;;10.10;99.90;;;;;;4853842;29;20085;-85
2021/11/18 09:21:17;;;;;;;17.85;4.90;;;10.10;99.90;;;;;;4868818;29;20113;-86
2021/11/18 09:23:54;;;;;;;17.30;5.32;;;10.10;99.90;;;;;;4851653;29;20387;-84
2021/11/18 09:26:23;;;;;;;13.75;5.15;;;10.10;99.90;;;;;;4871469;29;20084;-86
2021/11/18 09:28:49;;;;;;;18.45;5.28;;;10.20;99.90;;;;;;4867107;29;20024;-85
2021/11/18 09:31:17;;;;;;;23.95;5.55;;;10.10;99.90;;;;;;4846952;29;20042;-83
2021/11/18 09:33:45;;;;;;;14.73;5.78;;;10.20;99.90;;;;;;4845736;29;20124;-81
2021/11/18 09:36:11;;;;;;;19.90;5.18;;;10.20;99.90;;;;;;4847654;29;20037;-81
2021/11/18 09:38:41;;;;;;;20.48;4.70;;;10.20;99.90;;;;;;4851317;29;20028;-82
2021/11/18 09:41:25;;;;;;;19.77;4.78;;;10.20;99.90;;;;;;4867336;29;20026;-82
2021/11/18 09:44:38;;;;;;;15.65;5.20;;;10.20;99.90;;;;;;4843966;29;20073;-82
2021/11/18 09:47:13;;;;;;;27.77;5.68;;;10.30;99.90;;;;;;4828594;29;20034;-83
2021/11/18 09:50:03;;;;;;;20.10;5.85;;;10.30;99.90;;;;;;4846287;29;20037;-82
2021/11/18 09:52:38;;;;;;;21.08;5.20;;;10.40;99.90;;;;;;4846471;29;20508;-82
2021/11/18 09:55:08;;;;;;;13.73;4.55;;;10.40;99.90;;;;;;4847070;29;20045;-83
2021/11/18 09:58:16;;;;;;;14.02;5.15;;;10.50;99.90;;;;;;4843452;29;20046;-82
2021/11/18 10:01:26;;;;;;;17.77;4.80;;;10.60;99.90;;;;;;4844800;29;20042;-88
2021/11/18 10:04:11;;;;;;;17.33;4.28;;;10.60;99.90;;;;;;4834305;29;20077;-83
2021/11/18 10:06:39;;;;;;;14.88;5.38;;;10.70;99.90;;;;;;4844832;29;20481;-81
2021/11/18 10:09:12;;;;;;;15.63;4.22;;;10.80;99.90;;;;;;4842126;29;20026;-86
2021/11/18 10:12:02;;;;;;;19.67;4.70;;;10.80;99.90;;;;;;4842365;29;20030;-82
2021/11/18 10:14:46;;;;;;;16.98;4.22;;;10.80;99.90;;;;;;4843025;29;20518;-82
2021/11/18 10:17:12;;;;;;;16.40;4.00;;;11.00;99.90;;;;;;4843021;29;20113;-82
2021/11/18 10:19:43;;;;;;;21.90;6.22;;;11.00;99.90;;;;;;4842330;29;20125;-81
2021/11/18 10:22:12;;;;;;;18.40;4.38;;;11.00;99.90;;;;;;4843706;29;20418;-82
2021/11/18 10:24:41;;;;;;;15.80;3.92;;;11.10;99.90;;;;;;4841304;29;20098;-82
2021/11/18 10:27:21;;;;;;;20.55;4.38;;;11.20;99.90;;;;;;4843716;29;20030;-82
2021/11/18 10:30:09;;;;;;;12.75;5.10;;;11.20;99.90;;;;;;4842847;29;20030;-80
2021/11/18 10:33:14;;;;;;;19.33;5.85;;;11.20;99.90;;;;;;4837411;29;20034;-82
2021/11/18 10:36:08;;;;;;;10.52;3.25;;;11.20;99.90;;;;;;4837948;29;20102;-81
2021/11/18 10:38:33;;;;;;;28.00;4.95;;;11.30;99.90;;;;;;4842550;29;20058;-82
2021/11/18 10:41:15;;;;;;;21.48;4.30;;;11.30;99.90;;;;;;4838853;29;20034;-82
2021/11/18 10:43:41;;;;;;;22.73;5.05;;;11.30;99.90;;;;;;4841639;29;20030;-81
2021/11/18 10:46:20;;;;;;;27.45;5.15;;;11.30;99.90;;;;;;4836254;29;20657;-82
2021/11/18 10:49:03;;;;;;;22.65;4.80;;;11.40;99.90;;;;;;4838178;29;20097;-82
2021/11/18 10:51:41;;;;;;;16.73;5.28;;;11.40;99.90;;;;;;4840194;29;20037;-84
2021/11/18 10:54:10;;;;;;;17.75;4.32;;;11.30;99.90;;;;;;4840417;29;20037;-82
2021/11/18 10:56:38;;;;;;;19.42;5.10;;;11.40;99.90;;;;;;4843173;29;20513;-81
2021/11/18 10:59:31;;;;;;;16.42;5.25;;;11.40;99.90;;;;;;4843077;29;20110;-81
2021/11/18 11:01:57;;;;;;;17.95;4.55;;;11.40;99.90;;;;;;4821357;29;20058;-82
2021/11/18 11:04:41;;;;;;;26.30;5.20;;;11.50;99.90;;;;;;4820072;29;20033;-82
2021/11/18 11:07:09;;;;;;;16.60;4.60;;;11.60;99.90;;;;;;4832869;29;20057;-81
2021/11/18 11:09:41;;;;;;;22.48;4.97;;;11.60;99.90;;;;;;4831198;29;20034;-83
2021/11/18 11:12:21;;;;;;;22.10;4.10;;;11.70;99.90;;;;;;4836204;29;20499;-84
2021/11/18 11:14:57;;;;;;;17.23;4.97;;;11.70;99.90;;;;;;4831639;29;20041;-82
2021/11/18 11:17:45;;;;;;;16.27;3.80;;;11.70;99.90;;;;;;4826233;29;20054;-85
2021/11/18 11:20:14;;;;;;;;;;;11.70;99.90;;;;;;4834160;29;20069;-85
2021/11/18 11:22:45;;;;;;;21.92;4.30;;;11.80;99.90;;;;;;4822947;29;19920;-83
2021/11/18 11:25:48;;;;;;;11.48;3.58;;;11.80;99.90;;;;;;4826148;29;20471;-85
2021/11/18 11:28:31;;;;;;;11.38;3.47;;;11.90;99.90;;;;;;4823188;29;20035;-83
2021/11/18 11:31:29;;;;;;;21.52;4.38;;;12.00;99.90;;;;;;4837860;29;20034;-85
2021/11/18 11:34:12;;;;;;;20.52;4.10;;;12.00;99.90;;;;;;4839068;29;20031;-86
2021/11/18 11:36:48;;;;;;;22.30;4.30;;;12.00;99.90;;;;;;4821852;29;20062;-85
2021/11/18 11:39:56;;;;;;;14.90;4.10;;;12.00;99.90;;;;;;4821951;29;20392;-83
2021/11/18 11:42:58;;;;;;;13.82;4.20;;;12.10;99.90;;;;;;4819576;29;20098;-84
2021/11/18 11:46:01;;;;;;;18.92;4.13;;;12.10;99.90;;;;;;4838275;29;20038;-83
2021/11/18 11:48:37;;;;;;;16.10;4.28;;;12.10;99.90;;;;;;4824015;29;20042;-81
2021/11/18 11:51:21;;;;;;;14.65;4.18;;;12.20;99.90;;;;;;4833000;29;20506;-86
2021/11/18 11:53:56;;;;;;;15.55;4.78;;;12.20;99.90;;;;;;4844065;29;20065;-84
2021/11/18 11:56:27;;;;;;;20.45;4.75;;;12.20;99.90;;;;;;4843466;29;20147;-85
2021/11/18 11:59:10;;;;;;;21.38;4.05;;;12.20;99.90;;;;;;4847312;29;20094;-84
2021/11/18 12:02:03;;;;;;;18.25;3.97;;;12.20;99.90;;;;;;4831708;29;20045;-84
2021/11/18 12:04:41;;;;;;;26.65;4.63;;;12.30;99.90;;;;;;4846888;29;20042;-85
2021/11/18 12:07:47;;;;;;;21.10;4.80;;;12.40;99.90;;;;;;4847487;29;20444;-85
2021/11/18 12:10:31;;;;;;;15.40;4.00;;;12.30;99.90;;;;;;4843788;29;20038;-84
2021/11/18 12:13:19;;;;;;;17.13;4.22;;;12.40;99.90;;;;;;4847170;29;20102;-85
2021/11/18 12:15:48;;;;;;;15.20;3.83;;;12.50;99.90;;;;;;4846082;29;20454;-84
2021/11/18 12:18:29;;;;;;;15.82;3.95;;;12.40;99.90;;;;;;4847528;29;20032;-84
2021/11/18 12:20:59;;;;;;;23.98;4.63;;;12.40;99.90;;;;;;4848412;29;20041;-83
2021/11/18 12:24:02;;;;;;;16.95;3.45;;;12.40;99.90;;;;;;4866101;29;20125;-86
2021/11/18 12:26:45;;;;;;;22.98;4.82;;;12.40;99.90;;;;;;4840528;29;20048;-85
2021/11/18 12:29:17;;;;;;;22.13;3.80;;;12.40;99.90;;;;;;4842233;29;20042;-84
2021/11/18 12:31:57;;;;;;;14.57;3.45;;;12.50;99.90;;;;;;4830581;29;20049;-83
2021/11/18 12:34:58;;;;;;;13.85;3.80;;;12.50;99.90;;;;;;4844838;29;20561;-83
2021/11/18 12:37:30;;;;;;;13.27;3.72;;;12.60;99.90;;;;;;4845363;29;20037;-83
2021/11/18 12:40:05;;;;;;;17.85;3.53;;;12.70;99.90;;;;;;4839212;29;20033;-82
2021/11/18 12:42:53;;;;;;;5.97;2.92;;;12.80;99.90;;;;;;4843762;29;20049;-84
2021/11/18 12:45:27;;;;;;;19.08;4.18;;;12.90;99.90;;;;;;4842097;29;20113;-85
2021/11/18 12:48:04;;;;;;;17.67;3.58;;;12.90;99.90;;;;;;4847409;29;20487;-85
2021/11/18 12:50:36;;;;;;;22.75;3.70;;;13.10;99.90;;;;;;4827420;29;20757;-84
2021/11/18 12:53:11;;;;;;;17.27;3.58;;;13.10;99.90;;;;;;4834296;29;20063;-83
2021/11/18 12:55:58;;;;;;;16.02;3.28;;;13.20;99.90;;;;;;4845052;29;20049;-84
2021/11/18 12:58:27;;;;;;;22.58;5.50;;;13.20;99.90;;;;;;4835326;29;20050;-84
2021/11/18 13:01:21;;;;;;;22.23;3.80;;;13.20;99.90;;;;;;4849659;29;20093;-84
2021/11/18 13:03:48;;;;;;;13.02;3.35;;;13.20;99.90;;;;;;4843796;29;20069;-87
2021/11/18 13:06:28;;;;;;;24.92;4.22;;;13.20;99.90;;;;;;4845440;29;20042;-85